createdAt,value
2023-04-28T00:00:34.699Z,3.00
2023-04-28T00:03:03.685Z,2.77
2023-04-28T00:05:32.460Z,2.50
2023-04-28T00:08:04.169Z,2.90
2023-04-28T00:10:32.881Z,2.70
2023-04-28T00:13:04.666Z,3.00
2023-04-28T00:15:37.767Z,2.80
2023-04-28T00:18:07.489Z,3.47
2023-04-28T00:20:35.801Z,2.63
2023-04-28T00:23:04.192Z,3.47
2023-04-28T00:25:34.103Z,3.00
2023-04-28T00:28:03.115Z,3.20
2023-04-28T00:30:34.823Z,3.33
2023-04-28T00:33:03.340Z,2.87
2023-04-28T00:35:31.889Z,2.90
2023-04-28T00:38:00.321Z,3.40
2023-04-28T00:40:35.211Z,3.20
2023-04-28T00:43:03.983Z,3.47
2023-04-28T00:45:34.383Z,2.90
2023-04-28T00:48:04.275Z,3.13
2023-04-28T00:50:34.518Z,2.80
2023-04-28T00:53:03.468Z,3.57
2023-04-28T00:55:34.431Z,3.50
2023-04-28T00:58:06.260Z,3.63
2023-04-28T01:00:36.602Z,2.83
2023-04-28T01:03:10.676Z,2.83
2023-04-28T01:05:39.534Z,3.70
2023-04-28T01:08:08.151Z,3.40
2023-04-28T01:10:37.618Z,3.97
2023-04-28T01:13:14.038Z,3.80
2023-04-28T01:15:46.784Z,3.83
2023-04-28T01:18:16.087Z,3.83
2023-04-28T01:20:44.776Z,3.57
2023-04-28T01:23:15.208Z,3.90
2023-04-28T01:25:46.490Z,4.13
2023-04-28T01:28:14.909Z,3.93
2023-04-28T01:30:44.459Z,3.83
2023-04-28T01:33:14.297Z,3.50
2023-04-28T01:35:43.680Z,4.10
2023-04-28T01:38:12.363Z,4.53
2023-04-28T01:40:42.003Z,4.43
2023-04-28T01:43:11.979Z,4.47
2023-04-28T01:45:42.062Z,3.87
2023-04-28T01:48:10.930Z,3.87
2023-04-28T01:50:39.582Z,4.13
2023-04-28T01:53:08.234Z,3.93
2023-04-28T01:55:36.998Z,3.83
2023-04-28T01:58:08.716Z,3.77
2023-04-28T02:00:41.200Z,3.63
2023-04-28T02:03:10.074Z,3.93
2023-04-28T02:05:40.379Z,3.53
2023-04-28T02:08:09.343Z,4.20
2023-04-28T02:10:38.648Z,4.50
2023-04-28T02:13:07.249Z,3.57
2023-04-28T02:15:36.513Z,3.77
2023-04-28T02:18:07.063Z,3.90
2023-04-28T02:20:35.702Z,4.03
2023-04-28T02:23:03.972Z,3.87
2023-04-28T02:25:34.451Z,4.70
2023-04-28T02:28:02.964Z,4.47
2023-04-28T02:30:32.317Z,4.20
2023-04-28T02:33:01.459Z,4.00
2023-04-28T02:35:32.783Z,3.50
2023-04-28T02:38:01.157Z,3.93
2023-04-28T02:40:29.689Z,3.50
2023-04-28T02:42:58.264Z,3.80
2023-04-28T02:45:27.046Z,4.03
2023-04-28T02:47:56.025Z,3.77
2023-04-28T02:50:24.996Z,4.13
2023-04-28T02:52:55.499Z,3.53
2023-04-28T02:55:26.712Z,3.37
2023-04-28T02:57:56.239Z,3.37
2023-04-28T03:00:26.251Z,3.57
2023-04-28T03:02:56.363Z,3.37
2023-04-28T03:05:28.753Z,3.40
2023-04-28T03:07:59.327Z,3.60
2023-04-28T03:10:27.616Z,4.40
2023-04-28T03:12:56.272Z,3.70
2023-04-28T03:15:25.748Z,4.00
2023-04-28T03:17:54.260Z,4.17
2023-04-28T03:20:22.698Z,3.70
2023-04-28T03:22:51.394Z,3.70
2023-04-28T03:25:22.417Z,4.20
2023-04-28T03:27:52.985Z,3.97
2023-04-28T03:30:21.758Z,4.23
2023-04-28T03:32:52.909Z,4.10
2023-04-28T03:35:21.683Z,3.93
2023-04-28T03:37:52.580Z,4.10
2023-04-28T03:40:24.316Z,3.47
2023-04-28T03:43:19.317Z,3.80
2023-04-28T03:46:06.744Z,3.50
2023-04-28T03:48:35.922Z,3.87
2023-04-28T03:51:04.341Z,4.03
2023-04-28T03:53:33.492Z,4.10
2023-04-28T03:56:06.663Z,4.10
2023-04-28T03:58:35.652Z,4.50
2023-04-28T04:01:04.146Z,4.10
2023-04-28T04:03:33.288Z,4.57
2023-04-28T04:06:02.501Z,4.30
2023-04-28T04:08:32.940Z,4.00
2023-04-28T04:11:03.570Z,5.30
2023-04-28T04:13:32.206Z,4.80
2023-04-28T04:16:01.334Z,4.13
2023-04-28T04:18:32.686Z,4.37
2023-04-28T04:21:17.508Z,3.97
2023-04-28T04:23:47.224Z,4.60
2023-04-28T04:26:17.246Z,4.73
2023-04-28T04:28:47.545Z,5.00
2023-04-28T04:31:18.283Z,4.50
2023-04-28T04:33:48.644Z,4.67
2023-04-28T04:36:18.662Z,4.97
2023-04-28T04:38:47.320Z,4.93
2023-04-28T04:41:22.932Z,4.60
2023-04-28T04:43:57.675Z,4.53
2023-04-28T04:46:31.733Z,5.17
2023-04-28T04:49:00.515Z,5.47
2023-04-28T04:51:30.508Z,4.87
2023-04-28T04:54:00.998Z,5.10
2023-04-28T04:56:32.070Z,5.30
2023-04-28T04:59:00.997Z,5.10
2023-04-28T05:01:39.231Z,5.00
2023-04-28T05:04:10.218Z,5.40
2023-04-28T05:06:39.547Z,5.23
2023-04-28T05:09:10.656Z,5.20
2023-04-28T05:11:42.322Z,5.70
2023-04-28T05:14:10.492Z,5.60
2023-04-28T05:16:41.265Z,5.87
2023-04-28T05:19:13.441Z,6.20
2023-04-28T05:21:42.089Z,6.33
2023-04-28T05:24:11.186Z,5.43
2023-04-28T05:26:39.620Z,5.87
2023-04-28T05:29:12.616Z,5.30
2023-04-28T05:31:43.215Z,5.70
2023-04-28T05:34:12.139Z,5.13
2023-04-28T05:36:41.005Z,5.50
2023-04-28T05:39:11.922Z,5.30
2023-04-28T05:41:42.282Z,4.57
2023-04-28T05:44:12.644Z,4.43
2023-04-28T05:46:41.821Z,5.00
2023-04-28T05:49:13.562Z,5.90
2023-04-28T05:51:42.453Z,6.47
2023-04-28T05:54:11.115Z,5.20
2023-04-28T05:56:45.049Z,4.93
2023-04-28T05:59:15.999Z,5.20
2023-04-28T06:01:44.910Z,4.87
2023-04-28T06:04:13.864Z,4.60
2023-04-28T06:06:42.799Z,4.80
2023-04-28T06:09:11.313Z,5.83
2023-04-28T06:11:39.906Z,6.00
2023-04-28T06:14:08.537Z,6.43
2023-04-28T06:16:38.876Z,5.50
2023-04-28T06:19:07.373Z,5.67
2023-04-28T06:21:37.541Z,5.47
2023-04-28T06:24:06.541Z,4.83
2023-04-28T06:26:35.015Z,4.87
2023-04-28T06:29:03.983Z,5.20
2023-04-28T06:31:32.474Z,3.43
2023-04-28T06:34:06.196Z,3.40
2023-04-28T06:36:37.360Z,2.97
2023-04-28T06:39:06.778Z,3.10
2023-04-28T06:41:36.315Z,2.63
2023-04-28T06:44:06.796Z,3.10
2023-04-28T06:46:37.829Z,2.77
2023-04-28T06:49:08.026Z,3.50
2023-04-28T06:51:36.328Z,3.60
2023-04-28T06:54:05.159Z,3.60
2023-04-28T06:56:33.773Z,3.30
2023-04-28T06:59:03.283Z,3.20
2023-04-28T07:01:31.843Z,3.10
2023-04-28T07:04:00.400Z,2.60
2023-04-28T07:06:32.086Z,2.70
2023-04-28T07:09:01.780Z,2.07
2023-04-28T07:11:30.449Z,2.83
2023-04-28T07:13:59.323Z,2.47
2023-04-28T07:16:28.566Z,2.60
2023-04-28T07:18:57.807Z,2.50
2023-04-28T07:21:26.734Z,2.93
2023-04-28T07:24:00.927Z,2.10
2023-04-28T07:26:30.348Z,2.73
2023-04-28T07:28:58.658Z,1.90
2023-04-28T07:31:27.624Z,2.60
2023-04-28T07:33:56.416Z,2.03
2023-04-28T07:36:24.936Z,2.30
2023-04-28T07:38:53.354Z,2.33
2023-04-28T07:41:24.057Z,2.50
2023-04-28T07:43:53.760Z,2.13
2023-04-28T07:46:23.897Z,2.40
2023-04-28T07:48:52.434Z,2.57
2023-04-28T07:51:20.884Z,2.90
2023-04-28T07:53:49.825Z,2.60
2023-04-28T07:56:18.660Z,2.40
2023-04-28T07:58:48.624Z,2.87
2023-04-28T08:01:16.988Z,2.60
2023-04-28T08:03:45.741Z,2.40
2023-04-28T08:06:14.601Z,2.40
2023-04-28T08:08:42.997Z,2.53
2023-04-28T08:11:13.751Z,2.80
2023-04-28T08:13:42.483Z,2.90
2023-04-28T08:16:13.333Z,2.60
2023-04-28T08:18:42.456Z,2.70
2023-04-28T08:21:11.983Z,2.80
2023-04-28T08:23:40.480Z,2.77
2023-04-28T08:26:09.346Z,2.70
2023-04-28T08:28:38.108Z,2.63
2023-04-28T08:31:06.645Z,2.93
2023-04-28T08:33:37.307Z,2.87
2023-04-28T08:36:06.426Z,3.23
2023-04-28T08:38:35.201Z,3.37
2023-04-28T08:41:06.198Z,3.00
2023-04-28T08:43:36.201Z,3.40
2023-04-28T08:46:08.739Z,3.00
2023-04-28T08:48:43.004Z,2.97
2023-04-28T08:51:15.333Z,3.00
2023-04-28T08:56:28.231Z,3.60
2023-04-28T08:58:58.756Z,2.80
2023-04-28T09:01:29.202Z,3.10
2023-04-28T09:04:02.261Z,3.00
2023-04-28T09:06:36.212Z,3.50
2023-04-28T09:09:21.672Z,3.10
2023-04-28T09:11:58.886Z,3.10
2023-04-28T09:14:28.540Z,3.10
2023-04-28T09:16:57.723Z,3.30
2023-04-28T09:19:36.145Z,3.90
2023-04-28T09:22:18.123Z,3.93
2023-04-28T09:24:58.312Z,3.93
2023-04-28T09:27:31.510Z,4.00
2023-04-28T09:30:00.265Z,3.60
2023-04-28T09:32:30.873Z,3.90
2023-04-28T09:35:02.277Z,3.87
2023-04-28T09:37:31.343Z,3.40
2023-04-28T09:40:04.863Z,3.40
2023-04-28T09:42:35.087Z,3.67
2023-04-28T09:45:05.015Z,2.97
2023-04-28T09:47:37.380Z,1.93
2023-04-28T09:50:11.999Z,1.50
2023-04-28T09:52:42.962Z,1.20
2023-04-28T09:55:14.020Z,1.00
2023-04-28T09:57:49.849Z,0.90
2023-04-28T10:00:20.394Z,1.00
2023-04-28T10:02:53.856Z,1.10
2023-04-28T10:05:27.809Z,1.30
2023-04-28T10:08:00.284Z,1.00
2023-04-28T10:10:30.987Z,0.87
2023-04-28T10:12:59.897Z,1.00
2023-04-28T10:15:29.330Z,1.00
2023-04-28T10:17:58.833Z,1.00
2023-04-28T10:20:31.793Z,1.10
2023-04-28T10:23:20.744Z,0.90
2023-04-28T10:25:54.368Z,1.20
2023-04-28T10:28:24.253Z,1.00
2023-04-28T10:31:11.236Z,0.80
2023-04-28T10:33:40.318Z,0.80
2023-04-28T10:36:11.029Z,0.90
2023-04-28T10:39:10.711Z,0.80
2023-04-28T10:41:40.110Z,0.80
2023-04-28T10:44:41.974Z,1.03
2023-04-28T10:47:12.815Z,0.90
2023-04-28T10:50:10.685Z,0.90
2023-04-28T10:52:53.003Z,0.90
2023-04-28T10:55:33.136Z,0.90
2023-04-28T10:58:37.707Z,0.90
2023-04-28T11:01:29.875Z,0.83
2023-04-28T11:04:04.159Z,0.80
2023-04-28T11:06:34.633Z,0.73
2023-04-28T11:09:25.410Z,0.80
2023-04-28T11:12:08.275Z,0.90
2023-04-28T11:14:38.269Z,0.90
2023-04-28T11:17:08.574Z,0.90
2023-04-28T11:19:39.279Z,1.10
2023-04-28T11:22:16.150Z,1.13
2023-04-28T11:24:57.955Z,1.10
2023-04-28T11:27:27.967Z,1.20
2023-04-28T11:29:58.340Z,0.97
2023-04-28T11:32:31.425Z,0.80
2023-04-28T11:35:00.671Z,0.83
2023-04-28T11:37:29.450Z,1.00
2023-04-28T11:39:59.785Z,1.00
2023-04-28T11:42:29.695Z,1.00
2023-04-28T11:44:59.021Z,0.80
2023-04-28T11:47:33.721Z,0.90
2023-04-28T11:50:05.005Z,0.80
2023-04-28T11:52:37.193Z,0.80
2023-04-28T11:55:20.310Z,0.73
2023-04-28T11:57:48.856Z,1.70
2023-04-28T12:00:22.152Z,0.90
2023-04-28T12:02:51.068Z,0.80
2023-04-28T12:05:22.432Z,0.70
2023-04-28T12:07:51.193Z,0.90
2023-04-28T12:10:22.014Z,0.77
2023-04-28T12:12:53.200Z,1.07
2023-04-28T12:15:24.962Z,0.87
2023-04-28T12:17:54.549Z,0.90
2023-04-28T12:20:36.754Z,0.90
2023-04-28T12:23:07.425Z,0.97
2023-04-28T12:25:48.287Z,0.80
2023-04-28T12:28:23.820Z,0.83
2023-04-28T12:31:07.339Z,0.90
2023-04-28T12:33:38.583Z,0.90
2023-04-28T12:36:09.989Z,0.80
2023-04-28T12:38:49.529Z,0.80
2023-04-28T12:41:19.477Z,0.80
2023-04-28T12:43:48.343Z,0.80
2023-04-28T12:46:17.209Z,0.80
2023-04-28T12:48:46.609Z,0.80
2023-04-28T12:51:15.720Z,0.73
2023-04-28T12:53:47.084Z,0.80
2023-04-28T12:56:16.541Z,0.90
2023-04-28T12:58:47.940Z,0.80
2023-04-28T13:01:16.830Z,0.70
2023-04-28T13:03:48.501Z,0.77
2023-04-28T13:06:20.334Z,0.63
2023-04-28T13:08:51.709Z,1.00
2023-04-28T13:11:23.103Z,0.67
2023-04-28T13:13:53.311Z,0.80
2023-04-28T13:16:21.476Z,0.63
2023-04-28T13:18:50.999Z,0.70
2023-04-28T13:21:21.270Z,0.70
2023-04-28T13:23:49.901Z,0.80
2023-04-28T13:26:19.980Z,0.70
2023-04-28T13:28:48.775Z,0.77
2023-04-28T13:31:18.958Z,0.70
2023-04-28T13:33:47.483Z,0.80
2023-04-28T13:36:16.065Z,0.63
2023-04-28T13:38:49.022Z,0.70
2023-04-28T13:41:17.832Z,0.87
2023-04-28T13:43:46.769Z,0.70
2023-04-28T13:46:15.631Z,0.80
2023-04-28T13:48:45.786Z,0.90
2023-04-28T13:51:14.240Z,0.67
2023-04-28T13:53:43.773Z,0.70
2023-04-28T13:56:12.150Z,0.80
2023-04-28T13:58:41.965Z,0.80
2023-04-28T14:01:13.097Z,0.90
2023-04-28T14:03:42.068Z,0.70
2023-04-28T14:06:12.902Z,0.77
2023-04-28T14:08:41.677Z,0.80
2023-04-28T14:11:10.446Z,0.80
2023-04-28T14:13:38.743Z,1.10
2023-04-28T14:16:09.129Z,0.80
2023-04-28T14:18:37.563Z,0.70
2023-04-28T14:21:08.177Z,0.90
2023-04-28T14:23:38.717Z,0.77
2023-04-28T14:26:07.905Z,0.80
2023-04-28T14:28:37.688Z,0.70
2023-04-28T14:31:08.847Z,0.70
2023-04-28T14:33:37.790Z,0.70
2023-04-28T14:36:06.509Z,0.90
2023-04-28T14:38:39.597Z,1.10
2023-04-28T14:41:10.002Z,0.93
2023-04-28T14:43:39.182Z,0.93
2023-04-28T14:46:08.166Z,0.80
2023-04-28T14:48:37.905Z,0.90
2023-04-28T14:51:06.671Z,0.90
2023-04-28T14:53:35.038Z,0.80
2023-04-28T14:56:17.791Z,0.80
2023-04-28T14:58:49.011Z,0.70
2023-04-28T15:01:18.343Z,0.80
2023-04-28T15:03:47.546Z,0.97
2023-04-28T15:06:16.627Z,0.90
2023-04-28T15:08:45.031Z,0.70
2023-04-28T15:11:13.433Z,1.10
2023-04-28T15:13:43.129Z,0.90
2023-04-28T15:16:13.197Z,0.80
2023-04-28T15:18:44.130Z,1.00
2023-04-28T15:21:13.386Z,1.10
2023-04-28T15:23:42.505Z,0.90
2023-04-28T15:26:11.236Z,1.00
2023-04-28T15:28:40.404Z,0.90
2023-04-28T15:31:08.886Z,0.80
2023-04-28T15:33:39.169Z,0.70
2023-04-28T15:36:08.591Z,1.20
2023-04-28T15:38:40.149Z,2.60
2023-04-28T15:41:10.519Z,6.37
2023-04-28T15:43:39.082Z,1.30
2023-04-28T15:46:09.351Z,1.43
2023-04-28T15:48:39.793Z,0.90
2023-04-28T15:51:09.188Z,1.20
2023-04-28T15:53:37.432Z,1.00
2023-04-28T15:56:06.417Z,0.90
2023-04-28T15:58:35.164Z,0.90
2023-04-28T16:01:03.811Z,1.20
2023-04-28T16:03:34.047Z,0.90
2023-04-28T16:06:04.658Z,0.90
2023-04-28T16:08:33.430Z,1.10
2023-04-28T16:11:03.903Z,0.90
2023-04-28T16:13:37.486Z,0.83
2023-04-28T16:16:10.532Z,0.90
2023-04-28T16:18:40.704Z,0.80
2023-04-28T16:21:11.729Z,1.10
2023-04-28T16:23:40.184Z,1.10
2023-04-28T16:26:09.195Z,1.17
2023-04-28T16:28:38.388Z,0.90
2023-04-28T16:31:06.774Z,1.10
2023-04-28T16:33:37.785Z,1.03
2023-04-28T16:36:05.984Z,1.00
2023-04-28T16:38:39.722Z,1.23
2023-04-28T16:41:08.569Z,1.27
2023-04-28T16:43:38.525Z,1.03
2023-04-28T16:46:08.215Z,1.03
2023-04-28T16:48:36.942Z,1.00
2023-04-28T16:51:08.341Z,0.90
2023-04-28T16:53:39.027Z,1.33
2023-04-28T16:56:10.249Z,1.00
2023-04-28T16:58:39.468Z,1.10
2023-04-28T17:01:07.665Z,1.10
2023-04-28T17:03:41.898Z,1.00
2023-04-28T17:06:11.144Z,1.10
2023-04-28T17:08:42.202Z,1.30
2023-04-28T17:11:12.532Z,1.40
2023-04-28T17:13:42.533Z,1.10
2023-04-28T17:16:11.839Z,1.20
2023-04-28T17:18:44.568Z,1.20
2023-04-28T17:21:13.813Z,1.03
2023-04-28T17:23:43.852Z,1.23
2023-04-28T17:26:13.788Z,1.10
2023-04-28T17:28:43.982Z,1.20
2023-04-28T17:31:13.902Z,1.13
2023-04-28T17:33:42.819Z,1.20
2023-04-28T17:36:12.242Z,1.10
2023-04-28T17:38:40.903Z,1.20
2023-04-28T17:41:12.100Z,1.13
2023-04-28T17:43:40.545Z,1.20
2023-04-28T17:46:12.516Z,1.50
2023-04-28T17:48:41.351Z,1.40
2023-04-28T17:51:10.415Z,1.37
2023-04-28T17:53:39.297Z,1.40
2023-04-28T17:56:09.317Z,5.00
2023-04-28T17:58:41.560Z,1.83
2023-04-28T18:01:10.577Z,1.40
2023-04-28T18:03:40.081Z,1.47
2023-04-28T18:06:09.988Z,1.40
2023-04-28T18:08:38.771Z,1.20
2023-04-28T18:11:10.052Z,1.30
2023-04-28T18:13:40.579Z,1.53
2023-04-28T18:16:13.662Z,1.53
2023-04-28T18:18:42.268Z,2.20
2023-04-28T18:21:12.031Z,1.57
2023-04-28T18:23:41.288Z,1.83
2023-04-28T18:26:10.265Z,1.97
2023-04-28T18:28:43.861Z,2.10
2023-04-28T18:31:12.178Z,2.17
2023-04-28T18:33:40.761Z,1.80
2023-04-28T18:36:08.869Z,1.90
2023-04-28T18:38:37.599Z,1.60
2023-04-28T18:41:13.822Z,1.40
2023-04-28T18:43:44.301Z,1.90
2023-04-28T18:46:13.707Z,1.80
2023-04-28T18:48:42.505Z,1.67
2023-04-28T18:51:11.277Z,1.80
2023-04-28T18:53:39.606Z,1.97
2023-04-28T18:56:08.117Z,1.60
2023-04-28T18:58:37.559Z,2.17
2023-04-28T19:01:14.489Z,1.70
2023-04-28T19:03:44.462Z,1.70
2023-04-28T19:06:14.138Z,1.80
2023-04-28T19:08:42.981Z,1.87
2023-04-28T19:11:11.970Z,2.10
2023-04-28T19:13:40.511Z,1.60
2023-04-28T19:16:10.808Z,2.10
2023-04-28T19:18:42.124Z,1.80
2023-04-28T19:21:13.724Z,1.80
2023-04-28T19:23:44.657Z,1.93
2023-04-28T19:26:13.699Z,1.60
2023-04-28T19:28:44.566Z,1.53
2023-04-28T19:31:14.917Z,1.50
2023-04-28T19:33:45.550Z,1.80
2023-04-28T19:36:14.074Z,1.20
2023-04-28T19:38:42.967Z,1.50
2023-04-28T19:41:12.018Z,1.70
2023-04-28T19:43:40.667Z,1.40
2023-04-28T19:46:09.877Z,1.50
2023-04-28T19:48:40.956Z,1.10
2023-04-28T19:51:09.745Z,1.60
2023-04-28T19:53:40.545Z,1.50
2023-04-28T19:56:10.145Z,1.40
2023-04-28T19:58:40.842Z,1.20
2023-04-28T20:01:09.651Z,1.17
2023-04-28T20:03:39.579Z,1.57
2023-04-28T20:06:09.475Z,1.97
2023-04-28T20:08:38.228Z,2.20
2023-04-28T20:11:07.928Z,2.23
2023-04-28T20:13:36.677Z,2.00
2023-04-28T20:16:05.847Z,2.00
2023-04-28T20:18:36.966Z,1.70
2023-04-28T20:21:07.319Z,2.00
2023-04-28T20:23:36.716Z,1.67
2023-04-28T20:26:06.382Z,1.97
2023-04-28T20:28:36.941Z,1.70
2023-04-28T20:31:09.157Z,1.67
2023-04-28T20:33:38.370Z,1.90
2023-04-28T20:36:11.167Z,1.80
2023-04-28T20:38:39.812Z,1.77
2023-04-28T20:41:08.632Z,1.70
2023-04-28T20:43:37.511Z,1.50
2023-04-28T20:46:13.571Z,1.50
2023-04-28T20:48:43.329Z,1.43
2023-04-28T20:51:13.762Z,1.50
2023-04-28T20:53:42.955Z,1.17
2023-04-28T20:56:12.156Z,1.37
2023-04-28T20:58:44.321Z,1.10
2023-04-28T21:01:14.029Z,0.90
2023-04-28T21:03:42.856Z,1.43
2023-04-28T21:06:13.630Z,1.03
2023-04-28T21:08:43.978Z,1.10
2023-04-28T21:11:16.651Z,0.90
2023-04-28T21:13:46.155Z,1.03
2023-04-28T21:16:19.629Z,0.90
2023-04-28T21:18:51.877Z,0.90
2023-04-28T21:21:22.147Z,1.07
2023-04-28T21:23:51.298Z,0.80
2023-04-28T21:26:20.950Z,1.13
2023-04-28T21:28:52.860Z,1.00
2023-04-28T21:31:21.800Z,1.00
2023-04-28T21:33:50.188Z,1.00
2023-04-28T21:36:19.433Z,0.90
2023-04-28T21:38:49.473Z,1.27
2023-04-28T21:41:17.997Z,0.90
2023-04-28T21:43:47.016Z,0.90
2023-04-28T21:46:15.648Z,0.83
2023-04-28T21:48:44.337Z,0.80
2023-04-28T21:51:12.836Z,1.17
2023-04-28T21:53:41.688Z,0.90
2023-04-28T21:56:11.892Z,0.97
2023-04-28T21:58:40.418Z,1.00
2023-04-28T22:01:09.702Z,0.90
2023-04-28T22:03:39.633Z,1.07
2023-04-28T22:06:09.351Z,1.00
2023-04-28T22:08:39.675Z,0.90
2023-04-28T22:11:11.291Z,1.00
2023-04-28T22:13:41.247Z,0.90
2023-04-28T22:16:09.796Z,1.10
2023-04-28T22:18:39.700Z,1.10
2023-04-28T22:21:08.494Z,1.10
2023-04-28T22:23:37.122Z,1.00
2023-04-28T22:26:05.836Z,1.17
2023-04-28T22:28:35.912Z,0.80
2023-04-28T22:31:04.633Z,0.70
2023-04-28T22:33:38.617Z,0.90
2023-04-28T22:36:08.694Z,0.90
2023-04-28T22:38:37.745Z,0.80
2023-04-28T22:41:08.884Z,0.80
2023-04-28T22:43:38.905Z,1.00
2023-04-28T22:46:08.526Z,0.90
2023-04-28T22:48:37.513Z,0.80
2023-04-28T22:51:07.028Z,0.90
2023-04-28T22:53:35.578Z,0.80
2023-04-28T22:56:06.682Z,0.80
2023-04-28T22:58:35.939Z,0.93
2023-04-28T23:01:06.592Z,1.00
2023-04-28T23:03:35.495Z,0.90
2023-04-28T23:06:04.235Z,1.00
2023-04-28T23:08:36.758Z,0.90
2023-04-28T23:11:07.363Z,1.20
2023-04-28T23:13:36.051Z,1.00
2023-04-28T23:16:06.363Z,1.00
2023-04-28T23:18:35.728Z,0.80
2023-04-28T23:21:09.187Z,0.87
2023-04-28T23:23:39.188Z,0.90
2023-04-28T23:26:07.561Z,0.90
2023-04-28T23:28:39.736Z,0.90
2023-04-28T23:31:09.843Z,1.00
2023-04-28T23:33:41.048Z,1.10
2023-04-28T23:36:12.621Z,0.97
2023-04-28T23:38:42.098Z,1.00
2023-04-28T23:41:11.366Z,1.03
2023-04-28T23:43:40.248Z,1.03
2023-04-28T23:46:11.022Z,1.10
2023-04-28T23:48:40.028Z,1.10
2023-04-28T23:51:08.459Z,1.20
2023-04-28T23:53:36.846Z,1.13
2023-04-28T23:56:06.557Z,0.97
2023-04-28T23:58:35.037Z,1.20
